Time;durP1;ratioP1;P1;durP2;ratioP2;P2;SDS_P1;SDS_P2;PMS_P1;PMS_P2;Temp;Humidity;BMP_temperature;BMP_pressure;BME280_temperature;BME280_humidity;BME280_pressure;Samples;Min_cycle;Max_cycle;Signal;HPM_P1;HPM_P2
2022/11/24 04:02:41;;;;;;;0.63;0.60;;;7.40;90.00;;;;;;5133407;23;20505;-74
2022/11/24 04:05:08;;;;;;;0.67;0.67;;;7.40;90.10;;;;;;4974936;28;20993;-74
2022/11/24 04:07:35;;;;;;;0.70;0.60;;;7.40;90.10;;;;;;4975215;28;20446;-74
2022/11/24 04:10:02;;;;;;;0.70;0.70;;;7.40;90.40;;;;;;4975083;28;20482;-74
2022/11/24 04:12:42;;;;;;;0.70;0.70;;;7.40;90.20;;;;;;4975059;28;20462;-74
2022/11/24 04:15:10;;;;;;;0.60;0.60;;;7.40;90.40;;;;;;4976361;28;20470;-74
2022/11/24 04:17:36;;;;;;;0.70;0.70;;;7.20;90.80;;;;;;4975033;28;20445;-74
2022/11/24 04:20:05;;;;;;;0.60;0.60;;;7.20;91.10;;;;;;4974973;28;20513;-74
2022/11/24 04:22:32;;;;;;;0.60;0.60;;;7.30;91.30;;;;;;4974919;28;20466;-75
2022/11/24 04:24:59;;;;;;;0.70;0.70;;;7.40;91.20;;;;;;4974933;28;20454;-74
2022/11/24 04:27:26;;;;;;;0.70;0.70;;;7.40;90.50;;;;;;4974890;28;20446;-74
2022/11/24 04:29:52;;;;;;;0.60;0.60;;;7.30;90.40;;;;;;4974814;28;20482;-74
2022/11/24 04:32:19;;;;;;;0.70;0.70;;;7.40;91.10;;;;;;4974801;28;20525;-74
2022/11/24 04:34:46;;;;;;;1.03;0.90;;;7.40;90.20;;;;;;4974803;28;20454;-74
2022/11/24 04:37:14;;;;;;;0.60;0.60;;;7.30;90.90;;;;;;4974761;28;20454;-74
2022/11/24 04:39:40;;;;;;;0.60;0.60;;;7.30;91.10;;;;;;4974406;28;20938;-74
2022/11/24 04:42:07;;;;;;;0.60;0.60;;;7.30;90.90;;;;;;4974608;28;20840;-74
2022/11/24 04:44:34;;;;;;;0.70;0.70;;;7.30;91.00;;;;;;4974688;28;20450;-74
2022/11/24 04:47:01;;;;;;;0.60;0.60;;;7.30;90.80;;;;;;4974668;28;20446;-74
2022/11/24 04:49:28;;;;;;;0.77;0.70;;;7.30;90.60;;;;;;4974565;28;20481;-74
2022/11/24 04:51:54;;;;;;;0.80;0.80;;;7.30;91.20;;;;;;4974208;28;20477;-74
2022/11/24 04:54:22;;;;;;;0.83;0.83;;;7.30;90.80;;;;;;4974266;28;20453;-74
2022/11/24 04:56:51;;;;;;;0.70;0.70;;;7.30;90.60;;;;;;4974282;28;20820;-74
2022/11/24 04:59:18;;;;;;;0.60;0.60;;;7.40;90.50;;;;;;4974538;28;20477;-74
2022/11/24 05:01:46;;;;;;;0.80;0.63;;;7.30;90.20;;;;;;4974201;28;20486;-74
2022/11/24 05:04:14;;;;;;;0.60;0.60;;;7.30;90.50;;;;;;4974497;28;20451;-74
2022/11/24 05:06:41;;;;;;;0.73;0.73;;;7.30;91.00;;;;;;4974167;28;20820;-74
2022/11/24 05:09:08;;;;;;;0.70;0.70;;;7.20;91.00;;;;;;4974355;28;20497;-74
2022/11/24 05:11:36;;;;;;;0.63;0.63;;;7.20;90.80;;;;;;4974378;28;20470;-74
2022/11/24 05:14:03;;;;;;;0.60;0.60;;;7.20;90.70;;;;;;4974406;28;20446;-74
2022/11/24 05:16:30;;;;;;;0.60;0.60;;;7.10;91.20;;;;;;4974402;28;20537;-74
2022/11/24 05:18:56;;;;;;;0.70;0.70;;;7.20;91.30;;;;;;4974348;28;20447;-74
2022/11/24 05:21:23;;;;;;;0.60;0.60;;;7.30;90.30;;;;;;4974293;28;20493;-73
2022/11/24 05:23:50;;;;;;;0.70;0.70;;;7.40;92.80;;;;;;4974328;28;20450;-73
2022/11/24 05:26:17;;;;;;;0.50;0.50;;;7.50;92.50;;;;;;4976600;28;20453;-75
2022/11/24 05:28:45;;;;;;;1.40;1.40;;;7.40;90.30;;;;;;4978022;28;20569;-75
2022/11/24 05:31:11;;;;;;;0.70;0.70;;;7.40;89.60;;;;;;4977682;28;20855;-75
2022/11/24 05:33:38;;;;;;;0.60;0.60;;;7.30;89.80;;;;;;4978052;28;20458;-75
2022/11/24 05:36:06;;;;;;;0.60;0.60;;;7.30;89.90;;;;;;4977952;28;20478;-74
2022/11/24 05:38:34;;;;;;;0.80;0.80;;;7.30;89.60;;;;;;4977624;28;20797;-74
2022/11/24 05:41:01;;;;;;;0.77;0.77;;;7.20;90.10;;;;;;4977821;28;20485;-74
2022/11/24 05:43:28;;;;;;;0.70;0.70;;;7.20;90.20;;;;;;4977820;28;20446;-74
2022/11/24 05:45:59;;;;;;;0.80;0.80;;;7.20;90.00;;;;;;4977474;28;20454;-74
2022/11/24 05:48:25;;;;;;;0.70;0.70;;;7.20;89.80;;;;;;4977422;28;20525;-74
2022/11/24 05:50:56;;;;;;;1.03;0.80;;;7.30;90.20;;;;;;4977625;28;20470;-74
2022/11/24 05:53:24;;;;;;;0.70;0.70;;;7.20;89.90;;;;;;4977691;28;20450;-74
2022/11/24 05:55:51;;;;;;;0.70;0.70;;;7.20;90.40;;;;;;4977639;28;20450;-75
2022/11/24 05:58:17;;;;;;;0.77;0.77;;;7.30;90.10;;;;;;4977611;28;20449;-75
2022/11/24 06:00:44;;;;;;;0.73;0.73;;;7.30;89.80;;;;;;4977515;28;20473;-75
2022/11/24 06:03:12;;;;;;;0.90;0.80;;;7.20;90.30;;;;;;4977295;28;20870;-75
2022/11/24 06:05:39;;;;;;;0.70;0.70;;;7.20;90.30;;;;;;4977538;28;20450;-75
2022/11/24 06:08:06;;;;;;;1.10;0.97;;;7.20;90.20;;;;;;4977397;28;20441;-75
2022/11/24 06:10:32;;;;;;;0.90;0.90;;;7.20;90.30;;;;;;4976932;28;21011;-75
2022/11/24 06:12:59;;;;;;;1.37;1.00;;;7.20;90.60;;;;;;4978110;28;20449;-75
2022/11/24 06:15:26;;;;;;;0.60;0.60;;;7.20;90.80;;;;;;4977287;28;20449;-75
2022/11/24 06:17:54;;;;;;;0.80;0.80;;;7.30;90.80;;;;;;4977202;28;20458;-76
2022/11/24 06:20:23;;;;;;;0.87;0.87;;;7.30;90.40;;;;;;4977132;28;20442;-75
2022/11/24 06:22:49;;;;;;;0.73;0.73;;;7.30;90.50;;;;;;4977054;28;20454;-75
2022/11/24 06:25:17;;;;;;;0.60;0.60;;;7.30;90.30;;;;;;4977050;28;20446;-76
2022/11/24 06:27:44;;;;;;;0.70;0.70;;;7.20;90.30;;;;;;4979553;28;20457;-75
2022/11/24 06:30:12;;;;;;;0.70;0.70;;;7.20;90.80;;;;;;4985636;28;20496;-76
2022/11/24 06:32:43;;;;;;;0.93;0.93;;;7.30;90.80;;;;;;4988201;28;20839;-76
2022/11/24 06:35:10;;;;;;;1.00;0.90;;;7.30;90.60;;;;;;4987807;28;20443;-76
2022/11/24 06:37:39;;;;;;;0.73;0.70;;;7.30;90.40;;;;;;4988024;28;20514;-76
2022/11/24 06:40:08;;;;;;;2.83;0.97;;;7.40;91.10;;;;;;4987939;28;20460;-76
2022/11/24 06:42:35;;;;;;;0.80;0.80;;;7.40;90.30;;;;;;4987984;28;20529;-75
2022/11/24 06:45:02;;;;;;;0.80;0.80;;;7.40;90.30;;;;;;4988204;28;20450;-76
2022/11/24 06:47:29;;;;;;;0.70;0.70;;;7.50;90.80;;;;;;4988211;28;20448;-78
2022/11/24 06:49:55;;;;;;;0.80;0.77;;;7.60;90.00;;;;;;4989740;28;20509;-76
2022/11/24 06:52:22;;;;;;;0.70;0.70;;;7.60;89.50;;;;;;4988752;28;20521;-76
2022/11/24 06:54:50;;;;;;;0.67;0.67;;;7.60;89.60;;;;;;4989562;28;20451;-75
2022/11/24 06:57:17;;;;;;;1.00;1.00;;;7.60;89.70;;;;;;4991115;28;20451;-76
2022/11/24 06:59:44;;;;;;;2.50;0.90;;;7.60;89.40;;;;;;4994813;28;20451;-75
2022/11/24 07:02:11;;;;;;;0.80;0.80;;;7.70;89.60;;;;;;4994056;28;20492;-76
2022/11/24 07:04:37;;;;;;;0.80;0.80;;;7.80;89.30;;;;;;4993270;28;20510;-76
2022/11/24 07:07:04;;;;;;;0.80;0.80;;;7.80;89.10;;;;;;4993549;28;20456;-76
2022/11/24 07:09:31;;;;;;;1.10;1.00;;;7.80;89.30;;;;;;4992770;28;20497;-76
2022/11/24 07:12:01;;;;;;;0.83;0.83;;;7.80;89.20;;;;;;4991738;28;20466;-76
2022/11/24 07:14:27;;;;;;;0.73;0.73;;;7.80;89.50;;;;;;4988592;28;20461;-76
2022/11/24 07:16:54;;;;;;;1.00;0.90;;;7.90;89.80;;;;;;4987764;28;20458;-76
2022/11/24 07:19:21;;;;;;;1.10;0.97;;;8.00;89.70;;;;;;4987193;28;20442;-76
2022/11/24 07:21:48;;;;;;;0.90;0.83;;;7.90;89.10;;;;;;4987951;28;20474;-75
2022/11/24 07:24:15;;;;;;;1.00;0.70;;;7.90;89.40;;;;;;4987566;28;20451;-76
2022/11/24 07:26:41;;;;;;;0.80;0.80;;;7.70;89.80;;;;;;4986149;28;20454;-76
2022/11/24 07:29:09;;;;;;;0.80;0.80;;;7.80;90.40;;;;;;4983606;28;20456;-75
2022/11/24 07:31:36;;;;;;;0.90;0.90;;;7.80;90.30;;;;;;4977362;28;20476;-76
2022/11/24 07:34:03;;;;;;;0.97;0.80;;;7.80;90.60;;;;;;4977209;28;20446;-76
2022/11/24 07:36:30;;;;;;;0.80;0.80;;;7.90;90.90;;;;;;4976599;28;20450;-76
2022/11/24 07:38:57;;;;;;;0.80;0.80;;;7.90;91.20;;;;;;4976694;28;20469;-77
2022/11/24 07:41:23;;;;;;;0.70;0.70;;;8.10;90.80;;;;;;4976533;28;20470;-74
2022/11/24 07:43:50;;;;;;;0.73;0.73;;;8.20;90.40;;;;;;4976334;28;20945;-77
2022/11/24 07:46:19;;;;;;;0.70;0.70;;;8.30;90.30;;;;;;4975772;28;20457;-77
2022/11/24 07:48:47;;;;;;;0.70;0.70;;;8.40;90.00;;;;;;4975431;28;20815;-77
2022/11/24 07:51:14;;;;;;;0.70;0.70;;;8.30;89.60;;;;;;4976395;28;20577;-77
2022/11/24 07:53:41;;;;;;;0.83;0.80;;;8.40;90.30;;;;;;4976097;28;20466;-76
2022/11/24 07:56:09;;;;;;;0.80;0.70;;;8.50;90.10;;;;;;4975570;28;20449;-76
2022/11/24 07:58:37;;;;;;;0.87;0.87;;;8.40;90.00;;;;;;4975346;28;20465;-76
2022/11/24 08:01:11;;;;;;;0.80;0.80;;;8.40;90.30;;;;;;4975454;28;20482;-76
2022/11/24 08:03:39;;;;;;;0.67;0.67;;;8.40;90.50;;;;;;4975499;28;20433;-76
2022/11/24 08:06:07;;;;;;;0.93;0.87;;;8.40;90.90;;;;;;4975478;28;20454;-76
2022/11/24 08:08:34;;;;;;;0.73;0.70;;;8.40;90.40;;;;;;4976501;28;20462;-76
2022/11/24 08:11:06;;;;;;;0.97;0.97;;;8.40;90.30;;;;;;4980670;28;20540;-77
2022/11/24 08:13:33;;;;;;;0.77;0.77;;;8.40;90.70;;;;;;4985554;28;20434;-78
2022/11/24 08:16:03;;;;;;;0.70;0.70;;;8.40;90.80;;;;;;4985010;28;20450;-76
2022/11/24 08:18:29;;;;;;;0.70;0.70;;;8.40;90.80;;;;;;4984247;28;20453;-77
2022/11/24 08:20:59;;;;;;;0.77;0.70;;;8.30;90.40;;;;;;4986305;28;20465;-76
2022/11/24 08:23:26;;;;;;;0.70;0.70;;;8.40;90.70;;;;;;4979697;28;20442;-76
2022/11/24 08:25:53;;;;;;;0.80;0.80;;;8.40;90.50;;;;;;4974645;28;20957;-76
2022/11/24 08:28:20;;;;;;;0.60;0.60;;;8.30;89.80;;;;;;4974607;28;20958;-76
2022/11/24 08:30:46;;;;;;;0.70;0.70;;;8.30;90.50;;;;;;4974562;28;20982;-76
2022/11/24 08:33:13;;;;;;;1.37;0.70;;;8.30;90.20;;;;;;4974828;28;20454;-76
2022/11/24 08:35:40;;;;;;;0.70;0.70;;;8.40;90.00;;;;;;4974756;28;20446;-77
2022/11/24 08:38:08;;;;;;;0.70;0.70;;;8.50;90.10;;;;;;4974431;28;20950;-76
2022/11/24 08:40:35;;;;;;;0.77;0.77;;;8.50;90.00;;;;;;4974651;28;20450;-76
2022/11/24 08:43:02;;;;;;;0.50;0.50;;;8.50;89.50;;;;;;4974705;28;20458;-76
2022/11/24 08:45:29;;;;;;;0.70;0.70;;;8.50;90.10;;;;;;4974711;28;20450;-76
2022/11/24 08:47:56;;;;;;;0.63;0.60;;;8.60;90.10;;;;;;4974621;28;20450;-76
2022/11/24 08:50:24;;;;;;;0.50;0.50;;;8.60;89.90;;;;;;4974423;28;20485;-77
2022/11/24 08:52:52;;;;;;;0.70;0.60;;;8.70;89.70;;;;;;4974571;28;20446;-76
2022/11/24 08:55:20;;;;;;;0.50;0.50;;;8.70;89.60;;;;;;4974313;28;20446;-76
2022/11/24 08:57:47;;;;;;;0.67;0.67;;;8.60;88.80;;;;;;4974276;28;20950;-76
2022/11/24 09:00:20;;;;;;;0.50;0.50;;;8.50;89.30;;;;;;4975180;28;20474;-76
2022/11/24 09:02:53;;;;;;;0.50;0.50;;;8.50;89.90;;;;;;4978164;28;20482;-76
2022/11/24 09:05:20;;;;;;;0.70;0.60;;;8.30;88.70;;;;;;4978538;28;20446;-77
2022/11/24 09:07:47;;;;;;;0.50;0.50;;;8.10;89.30;;;;;;4978151;28;20831;-76
2022/11/24 09:10:14;;;;;;;0.70;0.70;;;8.00;89.90;;;;;;4978359;28;20489;-76
2022/11/24 09:12:44;;;;;;;0.50;0.50;;;7.90;90.10;;;;;;4978320;28;20837;-76
2022/11/24 09:15:11;;;;;;;0.60;0.60;;;8.10;90.70;;;;;;4978864;28;20450;-76
2022/11/24 09:17:38;;;;;;;0.50;0.50;;;8.10;90.00;;;;;;4979099;28;20458;-76
2022/11/24 09:20:05;;;;;;;0.50;0.50;;;8.10;89.90;;;;;;4977945;28;20451;-76
2022/11/24 09:22:32;;;;;;;0.60;0.50;;;8.20;90.10;;;;;;4978158;28;20488;-76
2022/11/24 09:24:59;;;;;;;0.67;0.67;;;8.20;90.10;;;;;;4978172;28;20457;-76
2022/11/24 09:27:25;;;;;;;0.57;0.57;;;8.20;89.30;;;;;;4978179;28;20457;-76
2022/11/24 09:29:53;;;;;;;0.50;0.50;;;8.10;89.60;;;;;;4978560;28;20485;-77
2022/11/24 09:32:20;;;;;;;0.50;0.50;;;8.20;89.30;;;;;;4977682;28;20529;-76
2022/11/24 09:34:47;;;;;;;0.50;0.50;;;8.20;89.10;;;;;;4978048;28;20466;-76
2022/11/24 09:37:13;;;;;;;0.50;0.50;;;8.10;89.60;;;;;;4977936;28;20450;-77
2022/11/24 09:39:40;;;;;;;0.50;0.50;;;8.30;89.90;;;;;;4977903;28;20544;-76
2022/11/24 09:42:13;;;;;;;0.57;0.57;;;8.50;89.50;;;;;;4977812;28;20466;-76
2022/11/24 09:45:03;;;;;;;0.53;0.53;;;8.60;88.80;;;;;;4977848;28;20457;-76
2022/11/24 09:47:39;;;;;;;0.50;0.50;;;8.80;89.10;;;;;;4977759;28;20435;-76
2022/11/24 09:50:10;;;;;;;1.57;0.80;;;8.80;87.70;;;;;;4977685;28;20520;-76
2022/11/24 09:52:44;;;;;;;0.60;0.60;;;8.70;88.20;;;;;;4977667;28;20470;-76
2022/11/24 09:55:38;;;;;;;0.60;0.60;;;8.70;87.30;;;;;;4977637;28;20439;-76
2022/11/24 09:58:14;;;;;;;0.50;0.50;;;8.70;87.90;;;;;;4977640;28;20442;-76
2022/11/24 10:00:42;;;;;;;0.50;0.50;;;8.70;87.90;;;;;;4977207;28;20921;-76
2022/11/24 10:03:16;;;;;;;0.60;0.60;;;9.00;88.50;;;;;;4977456;28;20517;-76
2022/11/24 10:05:44;;;;;;;0.60;0.60;;;9.20;87.80;;;;;;4977199;28;20906;-76
2022/11/24 10:08:23;;;;;;;0.50;0.50;;;9.30;87.80;;;;;;4977378;28;20442;-76
2022/11/24 10:10:58;;;;;;;0.50;0.50;;;9.30;87.20;;;;;;4976853;28;20489;-77
2022/11/24 10:13:45;;;;;;;0.60;0.60;;;9.40;86.90;;;;;;4985363;28;20472;-77
2022/11/24 10:16:25;;;;;;;0.53;0.50;;;9.50;86.40;;;;;;4989426;28;20435;-76
2022/11/24 10:19:02;;;;;;;0.60;0.60;;;9.50;85.70;;;;;;4989853;28;20477;-76
2022/11/24 10:21:56;;;;;;;0.70;0.70;;;9.30;86.20;;;;;;4990136;28;20466;-77
2022/11/24 10:24:36;;;;;;;0.60;0.60;;;9.30;87.10;;;;;;4989891;28;20533;-76
2022/11/24 10:27:10;;;;;;;0.50;0.50;;;9.30;87.00;;;;;;4989547;28;20445;-76
2022/11/24 10:29:40;;;;;;;0.60;0.60;;;9.40;87.50;;;;;;4988192;28;20430;-76
2022/11/24 10:32:17;;;;;;;0.50;0.50;;;9.60;87.00;;;;;;4989442;28;20585;-77
2022/11/24 10:34:45;;;;;;;0.50;0.50;;;9.70;85.70;;;;;;4982234;28;20441;-76
2022/11/24 10:37:16;;;;;;;0.70;0.50;;;9.90;85.90;;;;;;4976887;28;20474;-77
2022/11/24 10:39:52;;;;;;;0.50;0.50;;;10.00;86.50;;;;;;4976871;28;20434;-77
2022/11/24 10:42:23;;;;;;;0.70;0.60;;;10.20;85.70;;;;;;4976777;28;20477;-76
2022/11/24 10:45:00;;;;;;;0.60;0.60;;;10.30;85.90;;;;;;4976863;28;20775;-76
2022/11/24 10:47:29;;;;;;;0.50;0.50;;;10.40;85.70;;;;;;4976477;28;20902;-76
2022/11/24 10:49:59;;;;;;;0.50;0.50;;;10.40;83.90;;;;;;4976650;28;20454;-77
2022/11/24 10:52:28;;;;;;;0.50;0.50;;;10.60;84.80;;;;;;4976392;28;20470;-77
2022/11/24 10:54:58;;;;;;;0.50;0.50;;;10.60;83.20;;;;;;4976716;28;20451;-77
2022/11/24 10:57:29;;;;;;;0.50;0.50;;;10.70;84.00;;;;;;4976694;28;20458;-76
2022/11/24 10:59:56;;;;;;;0.50;0.50;;;10.70;83.10;;;;;;4976233;28;20902;-77
2022/11/24 11:02:39;;;;;;;0.50;0.50;;;10.60;83.60;;;;;;4976057;28;20517;-77
2022/11/24 11:05:40;;;;;;;0.57;0.57;;;10.70;83.30;;;;;;4976357;28;20430;-76
2022/11/24 11:08:20;;;;;;;0.57;0.57;;;10.70;82.60;;;;;;4983086;28;20445;-76
2022/11/24 11:10:49;;;;;;;0.60;0.60;;;10.60;83.00;;;;;;4988018;28;20486;-77
2022/11/24 11:13:27;;;;;;;0.50;0.50;;;10.60;84.10;;;;;;4978286;28;20469;-76
2022/11/24 11:15:54;;;;;;;0.50;0.50;;;10.70;85.30;;;;;;4975892;28;20435;-77
2022/11/24 11:18:26;;;;;;;0.50;0.50;;;10.70;83.60;;;;;;4980643;28;20442;-76
2022/11/24 11:20:55;;;;;;;0.60;0.60;;;10.70;84.10;;;;;;4986876;28;20470;-77
2022/11/24 11:23:27;;;;;;;0.50;0.50;;;10.70;83.90;;;;;;4978219;28;20450;-76
2022/11/24 11:26:18;;;;;;;0.60;0.60;;;10.70;81.40;;;;;;4976061;28;20522;-77
2022/11/24 11:28:59;;;;;;;0.50;0.50;;;10.70;81.70;;;;;;4984734;28;20481;-77
2022/11/24 11:31:26;;;;;;;0.70;0.70;;;10.70;81.10;;;;;;4984819;28;21061;-77
2022/11/24 11:34:01;;;;;;;0.50;0.50;;;10.60;81.50;;;;;;4981901;28;20450;-77
2022/11/24 11:36:29;;;;;;;0.60;0.60;;;10.70;81.90;;;;;;4986759;28;20430;-76
2022/11/24 11:38:57;;;;;;;0.50;0.50;;;10.50;81.00;;;;;;4986010;28;20566;-76
2022/11/24 11:41:29;;;;;;;0.60;0.60;;;10.60;82.50;;;;;;4975501;28;20473;-75
2022/11/24 11:44:07;;;;;;;0.50;0.50;;;10.40;81.20;;;;;;4975740;28;20438;-76
2022/11/24 11:46:33;;;;;;;0.70;0.70;;;10.30;82.30;;;;;;4975373;28;20923;-76
2022/11/24 11:49:02;;;;;;;0.50;0.50;;;10.20;83.00;;;;;;4975547;28;20454;-76
2022/11/24 11:51:50;;;;;;;0.50;0.50;;;10.40;83.30;;;;;;4975042;28;21112;-76
2022/11/24 11:54:30;;;;;;;0.53;0.53;;;10.40;82.90;;;;;;4975492;28;20438;-75
2022/11/24 11:57:06;;;;;;;0.60;0.60;;;10.50;82.70;;;;;;4975487;28;20434;-76
2022/11/24 11:59:55;;;;;;;0.60;0.60;;;10.40;83.60;;;;;;4975414;28;20442;-76
2022/11/24 12:02:57;;;;;;;0.60;0.60;;;10.30;82.90;;;;;;4974880;28;21010;-76
2022/11/24 12:05:33;;;;;;;0.60;0.60;;;10.30;83.70;;;;;;4974959;28;20811;-76
2022/11/24 12:08:11;;;;;;;0.60;0.60;;;10.20;83.40;;;;;;4975303;28;20441;-76
2022/11/24 12:10:42;;;;;;;0.60;0.60;;;10.30;84.00;;;;;;4975772;28;20482;-76
2022/11/24 12:13:37;;;;;;;0.50;0.50;;;10.40;83.60;;;;;;4975171;28;20431;-76
2022/11/24 12:16:13;;;;;;;0.60;0.60;;;10.60;83.50;;;;;;4973269;28;20458;-74
2022/11/24 12:18:47;;;;;;;0.60;0.60;;;10.80;83.50;;;;;;4975083;28;20435;-75
2022/11/24 12:21:17;;;;;;;0.60;0.60;;;10.80;83.00;;;;;;4974946;28;20462;-74
2022/11/24 12:24:00;;;;;;;0.50;0.50;;;10.90;82.90;;;;;;4974656;28;20469;-76
2022/11/24 12:26:37;;;;;;;0.50;0.50;;;11.00;81.80;;;;;;4975766;28;20431;-76
2022/11/24 12:29:22;;;;;;;0.50;0.50;;;11.10;81.80;;;;;;4974597;28;20848;-76
2022/11/24 12:31:58;;;;;;;0.73;0.67;;;11.40;81.40;;;;;;4975412;28;20494;-76
2022/11/24 12:34:37;;;;;;;0.90;0.90;;;11.60;80.90;;;;;;4974729;28;20434;-76
2022/11/24 12:37:20;;;;;;;0.60;0.60;;;11.70;79.60;;;;;;4974813;28;20438;-76
2022/11/24 12:39:56;;;;;;;0.50;0.50;;;11.80;79.10;;;;;;4974806;28;20443;-76
2022/11/24 12:42:34;;;;;;;0.53;0.53;;;11.90;78.40;;;;;;4981921;28;20473;-75
2022/11/24 12:48:35;;;;;;;0.70;0.70;;;11.80;77.10;;;;;;4955482;28;20464;-78
2022/11/24 12:51:06;;;;;;;0.60;0.60;;;11.80;75.90;;;;;;4983661;28;20578;-77
2022/11/24 12:53:37;;;;;;;0.67;0.67;;;11.50;75.20;;;;;;4983882;28;20780;-78
2022/11/24 12:56:07;;;;;;;0.90;0.90;;;11.40;74.30;;;;;;4981283;28;20438;-77
2022/11/24 12:58:41;;;;;;;0.70;0.70;;;11.30;74.30;;;;;;4974663;28;20435;-77
2022/11/24 13:01:15;;;;;;;0.77;0.77;;;11.30;74.80;;;;;;4974158;28;20853;-78
2022/11/24 13:03:52;;;;;;;0.60;0.60;;;11.50;74.90;;;;;;4974585;28;20439;-78
2022/11/24 13:06:25;;;;;;;0.60;0.60;;;12.20;74.80;;;;;;4974582;28;20441;-77
2022/11/24 13:08:53;;;;;;;0.60;0.60;;;15.40;68.90;;;;;;4974242;28;20446;-78
2022/11/24 13:11:39;;;;;;;0.60;0.60;;;18.90;57.90;;;;;;4974428;28;20493;-78
2022/11/24 13:14:11;;;;;;;0.83;0.83;;;22.60;50.20;;;;;;4974471;28;20430;-78
2022/11/24 13:16:48;;;;;;;0.60;0.60;;;25.50;44.70;;;;;;4974175;28;20799;-78
2022/11/24 13:19:19;;;;;;;0.63;0.63;;;27.30;40.70;;;;;;4974465;28;20438;-78
2022/11/24 13:21:59;;;;;;;0.60;0.60;;;28.80;38.90;;;;;;4974495;28;20473;-79
2022/11/24 13:24:30;;;;;;;0.50;0.50;;;30.30;35.40;;;;;;4974392;28;20869;-78
2022/11/24 13:27:28;;;;;;;0.50;0.50;;;31.30;34.60;;;;;;4974904;28;20468;-79
2022/11/24 13:29:55;;;;;;;0.60;0.60;;;31.50;33.50;;;;;;4974978;28;20785;-79
2022/11/24 13:33:00;;;;;;;0.50;0.50;;;32.00;32.60;;;;;;4974705;28;20580;-78
2022/11/24 13:35:27;;;;;;;0.60;0.60;;;31.90;32.10;;;;;;4974154;28;20465;-79
2022/11/24 13:37:54;;;;;;;0.70;0.70;;;31.50;32.40;;;;;;4974319;28;20525;-78
2022/11/24 13:40:41;;;;;;;0.60;0.60;;;30.00;33.80;;;;;;4980189;28;20442;-78
2022/11/24 13:43:23;;;;;;;0.60;0.60;;;27.50;36.00;;;;;;4984252;28;20431;-78
2022/11/24 13:45:52;;;;;;;0.70;0.70;;;23.80;40.50;;;;;;4984074;28;20450;-78
2022/11/24 13:48:59;;;;;;;0.60;0.60;;;21.60;44.50;;;;;;4987582;28;20455;-77
2022/11/24 13:51:26;;;;;;;0.50;0.50;;;19.00;49.10;;;;;;4987662;28;20485;-77
2022/11/24 13:53:59;;;;;;;0.60;0.60;;;17.80;52.10;;;;;;4986071;28;20527;-77
2022/11/24 13:56:31;;;;;;;0.60;0.60;;;16.50;55.00;;;;;;4986094;28;20454;-77
2022/11/24 13:59:14;;;;;;;0.80;0.80;;;15.40;57.40;;;;;;4985733;28;20485;-77
2022/11/24 14:01:42;;;;;;;0.70;0.70;;;16.00;58.40;;;;;;4988011;28;20508;-78
2022/11/24 14:04:18;;;;;;;0.83;0.70;;;16.70;56.10;;;;;;4987556;28;20458;-78
2022/11/24 14:06:48;;;;;;;0.60;0.60;;;17.70;54.30;;;;;;4987374;28;20453;-78
2022/11/24 14:09:28;;;;;;;0.70;0.70;;;18.20;52.80;;;;;;4985871;28;20454;-77
2022/11/24 14:12:07;;;;;;;0.60;0.60;;;18.30;51.50;;;;;;4983235;28;20485;-78
2022/11/24 14:14:34;;;;;;;0.80;0.80;;;17.60;52.80;;;;;;4988515;28;20430;-77
2022/11/24 14:17:17;;;;;;;0.60;0.60;;;17.20;54.30;;;;;;4985194;28;20450;-77
2022/11/24 14:19:45;;;;;;;0.60;0.60;;;17.10;55.00;;;;;;4977075;28;20441;-77
2022/11/24 14:22:20;;;;;;;0.50;0.50;;;17.30;54.10;;;;;;4977272;28;20466;-78
2022/11/24 14:24:53;;;;;;;0.70;0.70;;;17.40;53.80;;;;;;4977487;28;20426;-78
2022/11/24 14:27:27;;;;;;;0.60;0.60;;;16.70;54.30;;;;;;4977261;28;20449;-77
2022/11/24 14:29:59;;;;;;;0.60;0.60;;;15.80;56.60;;;;;;4977188;28;20429;-78
2022/11/24 14:32:26;;;;;;;0.70;0.70;;;14.60;59.40;;;;;;4977090;28;20485;-77
2022/11/24 14:34:53;;;;;;;0.70;0.70;;;13.90;60.80;;;;;;4976969;28;20473;-78
2022/11/24 14:37:20;;;;;;;0.60;0.60;;;13.50;61.70;;;;;;4977025;28;20456;-77
2022/11/24 14:39:47;;;;;;;0.83;0.83;;;13.10;64.60;;;;;;4977008;28;20453;-77
2022/11/24 14:42:19;;;;;;;0.70;0.70;;;12.90;64.60;;;;;;4977012;28;20470;-77
2022/11/24 14:44:51;;;;;;;0.60;0.60;;;12.70;65.40;;;;;;4976811;28;20504;-77
2022/11/24 14:47:23;;;;;;;0.60;0.60;;;12.50;66.80;;;;;;4976571;28;20526;-77
2022/11/24 14:49:51;;;;;;;0.70;0.70;;;12.20;67.10;;;;;;4977194;28;20435;-77
2022/11/24 14:52:20;;;;;;;0.70;0.70;;;11.60;68.60;;;;;;4976507;28;20491;-77
2022/11/24 14:54:49;;;;;;;0.73;0.73;;;11.30;69.90;;;;;;4976311;28;20969;-77
2022/11/24 14:57:24;;;;;;;0.80;0.80;;;11.20;70.20;;;;;;4976036;28;20450;-77
2022/11/24 15:00:08;;;;;;;0.60;0.60;;;11.00;71.50;;;;;;4976198;28;20458;-78
2022/11/24 15:02:42;;;;;;;0.60;0.60;;;11.00;71.60;;;;;;4976058;28;20478;-78
2022/11/24 15:05:09;;;;;;;1.43;0.90;;;11.10;71.60;;;;;;4976470;28;20522;-78
2022/11/24 15:07:37;;;;;;;0.70;0.70;;;10.90;71.00;;;;;;4976103;28;20452;-77
2022/11/24 15:10:06;;;;;;;0.60;0.60;;;10.80;71.00;;;;;;4976831;28;20446;-77
2022/11/24 15:12:38;;;;;;;0.70;0.67;;;10.80;71.30;;;;;;4977202;28;20498;-78
2022/11/24 15:15:19;;;;;;;0.70;0.70;;;11.00;71.40;;;;;;4976818;28;20439;-78
2022/11/24 15:17:48;;;;;;;0.70;0.70;;;11.10;71.00;;;;;;4978931;28;20489;-78
2022/11/24 15:20:19;;;;;;;0.60;0.60;;;11.10;71.30;;;;;;4986531;28;20446;-77
2022/11/24 15:22:46;;;;;;;0.70;0.70;;;11.20;71.40;;;;;;4986178;28;20462;-77
2022/11/24 15:25:27;;;;;;;0.60;0.60;;;11.20;70.90;;;;;;4978207;28;20434;-77
2022/11/24 15:27:54;;;;;;;0.70;0.70;;;11.20;71.00;;;;;;4976807;28;20527;-77
2022/11/24 15:30:23;;;;;;;0.60;0.60;;;11.00;71.80;;;;;;4975926;28;20450;-77
2022/11/24 15:32:51;;;;;;;0.70;0.70;;;11.00;71.80;;;;;;4975839;28;20486;-77
2022/11/24 15:35:18;;;;;;;0.67;0.67;;;11.00;72.50;;;;;;4975791;28;20454;-77
2022/11/24 15:37:45;;;;;;;0.83;0.83;;;11.00;72.60;;;;;;4975810;28;20446;-77
2022/11/24 15:40:12;;;;;;;0.70;0.70;;;10.90;72.70;;;;;;4975458;28;20973;-77
2022/11/24 15:42:39;;;;;;;0.70;0.70;;;10.90;73.00;;;;;;4975702;28;20462;-76
2022/11/24 15:45:07;;;;;;;0.70;0.70;;;10.90;73.30;;;;;;4976041;28;20458;-76
2022/11/24 15:47:35;;;;;;;0.70;0.70;;;10.80;73.70;;;;;;4975635;28;20454;-75
2022/11/24 15:50:02;;;;;;;1.07;0.90;;;10.80;73.90;;;;;;4975661;28;20453;-76
2022/11/24 15:52:30;;;;;;;0.77;0.77;;;10.70;74.10;;;;;;4975442;28;20492;-76
2022/11/24 15:54:58;;;;;;;0.70;0.70;;;10.60;74.40;;;;;;4975207;28;20450;-75
2022/11/24 15:57:25;;;;;;;0.80;0.80;;;10.40;75.00;;;;;;4975428;28;20461;-76
2022/11/24 15:59:52;;;;;;;0.67;0.67;;;10.30;75.40;;;;;;4975349;28;20454;-77
2022/11/24 16:02:20;;;;;;;0.80;0.80;;;10.20;75.50;;;;;;4974957;28;20891;-77
2022/11/24 16:04:48;;;;;;;0.67;0.67;;;10.20;75.80;;;;;;4975354;28;20454;-77
2022/11/24 16:07:15;;;;;;;1.10;1.10;;;10.10;75.70;;;;;;4975219;28;20466;-77
2022/11/24 16:09:42;;;;;;;0.70;0.70;;;10.00;76.20;;;;;;4974721;28;21139;-76
2022/11/24 16:12:09;;;;;;;0.90;0.90;;;10.00;76.40;;;;;;4975130;28;20493;-76
2022/11/24 16:14:36;;;;;;;0.90;0.90;;;9.80;76.60;;;;;;4976837;28;20484;-76
2022/11/24 16:17:03;;;;;;;0.80;0.80;;;9.80;76.80;;;;;;4975140;28;20450;-76
2022/11/24 16:19:30;;;;;;;1.10;1.00;;;9.80;76.90;;;;;;4975189;28;20457;-76
2022/11/24 16:21:58;;;;;;;0.70;0.70;;;9.70;76.80;;;;;;4974722;28;20463;-75
2022/11/24 16:24:24;;;;;;;0.73;0.73;;;9.70;77.10;;;;;;4974999;28;20454;-76
2022/11/24 16:26:51;;;;;;;0.97;0.97;;;9.60;77.30;;;;;;4981686;28;20453;-76
2022/11/24 16:29:19;;;;;;;0.80;0.80;;;9.60;77.30;;;;;;4985254;28;20446;-75
2022/11/24 16:31:47;;;;;;;0.80;0.80;;;9.50;77.50;;;;;;4985946;28;20497;-75
2022/11/24 16:34:15;;;;;;;0.80;0.80;;;9.40;77.70;;;;;;4985379;28;20461;-75
2022/11/24 16:36:42;;;;;;;1.00;1.00;;;9.40;77.80;;;;;;4983542;28;20484;-75
2022/11/24 16:39:10;;;;;;;0.70;0.70;;;9.40;77.70;;;;;;4984160;28;20828;-76
2022/11/24 16:41:37;;;;;;;0.70;0.70;;;9.30;77.80;;;;;;4985375;28;20538;-76
2022/11/24 16:44:04;;;;;;;0.90;0.80;;;9.20;77.90;;;;;;4984818;28;20450;-74
2022/11/24 16:46:31;;;;;;;0.90;0.90;;;9.20;78.00;;;;;;4985737;28;20793;-76
2022/11/24 16:49:00;;;;;;;0.80;0.73;;;9.10;78.20;;;;;;4987028;28;20545;-76
2022/11/24 16:51:27;;;;;;;0.80;0.80;;;9.00;78.40;;;;;;4986550;28;20477;-75
2022/11/24 16:53:58;;;;;;;2.97;0.83;;;8.90;78.70;;;;;;4990011;28;20486;-75
2022/11/24 16:56:26;;;;;;;0.97;0.97;;;8.90;78.80;;;;;;4981807;28;20493;-74
2022/11/24 16:58:53;;;;;;;0.90;0.90;;;8.90;78.90;;;;;;4975154;28;20457;-76
2022/11/24 17:01:20;;;;;;;0.90;0.90;;;8.80;78.80;;;;;;4975666;28;20481;-76
2022/11/24 17:03:47;;;;;;;0.97;0.97;;;8.80;79.10;;;;;;4975204;28;20427;-76
2022/11/24 17:06:15;;;;;;;0.80;0.80;;;8.80;79.60;;;;;;4975067;28;20450;-76
2022/11/24 17:08:43;;;;;;;0.80;0.80;;;8.70;79.20;;;;;;4975031;28;20450;-75
2022/11/24 17:11:12;;;;;;;0.90;0.90;;;8.70;79.30;;;;;;4974603;28;20474;-76
2022/11/24 17:13:42;;;;;;;0.87;0.87;;;8.60;79.20;;;;;;4974033;28;20569;-75
2022/11/24 17:16:11;;;;;;;0.90;0.90;;;8.60;79.60;;;;;;4974390;28;20446;-76